Time,TemperatureF,DewpointF,PressureIn,WindDirection,WindDirectionDegrees,WindSpeedMPH,WindSpeedGustMPH,Humidity,HourlyPrecipIn,Conditions,Clouds,dailyrainin,SoftwareType,DateUTC
2013-01-07 00:02:00,48.0,48.0,30.13,South,169,12.0,27.0,100,0.00,,,0.12,,2013-01-07 08:02:00,
2013-01-07 00:11:00,48.0,48.0,30.13,South,169,12.0,27.0,100,0.00,,,0.12,,2013-01-07 08:11:00,
2013-01-07 00:22:00,48.0,48.0,30.14,South,169,17.0,28.0,100,0.00,,,0.12,,2013-01-07 08:22:00,
2013-01-07 00:32:00,47.0,47.0,30.14,SSE,159,18.0,29.0,100,0.00,,,0.12,,2013-01-07 08:32:00,
2013-01-07 00:42:00,47.0,47.0,30.14,SSE,159,18.0,29.0,100,0.00,,,0.12,,2013-01-07 08:42:00,
2013-01-07 00:52:00,47.0,47.0,30.13,SE,129,15.0,28.0,100,0.01,,,0.13,,2013-01-07 08:52:00,
2013-01-07 01:02:00,47.0,47.0,30.11,SSE,157,17.0,23.0,100,0.01,,,0.13,,2013-01-07 09:02:00,
2013-01-07 01:12:00,47.0,47.0,30.11,SSE,157,17.0,23.0,100,0.01,,,0.13,,2013-01-07 09:12:00,
2013-01-07 01:22:00,47.0,47.0,30.11,SSE,167,13.0,30.0,100,0.01,,,0.13,,2013-01-07 09:22:00,
2013-01-07 01:32:00,48.0,48.0,30.13,SSE,155,15.0,29.0,100,0.01,,,0.13,,2013-01-07 09:32:00,
2013-01-07 01:42:00,48.0,48.0,30.13,SSE,155,15.0,29.0,100,0.01,,,0.13,,2013-01-07 09:42:00,
2013-01-07 01:52:00,48.0,48.0,30.13,South,170,22.0,34.0,100,0.01,,,0.14,,2013-01-07 09:52:00,
2013-01-07 02:02:00,48.0,48.0,30.13,South,179,13.0,26.0,100,0.01,,,0.14,,2013-01-07 10:02:00,
2013-01-07 02:11:00,48.0,48.0,30.12,SSE,159,18.0,31.0,100,0.02,,,0.15,,2013-01-07 10:11:00,
2013-01-07 02:22:00,48.0,48.0,30.12,SSE,159,18.0,31.0,100,0.02,,,0.15,,2013-01-07 10:22:00,
2013-01-07 02:32:00,48.0,48.0,30.12,SSE,159,16.0,26.0,100,0.02,,,0.15,,2013-01-07 10:32:00,
2013-01-07 02:42:00,48.0,48.0,30.12,SSE,159,16.0,26.0,100,0.02,,,0.15,,2013-01-07 10:42:00,
2013-01-07 02:52:00,49.0,49.0,30.12,SSE,162,15.0,32.0,100,0.01,,,0.15,,2013-01-07 10:52:00,
2013-01-07 03:01:00,49.0,49.0,30.13,South,169,16.0,29.0,100,0.02,,,0.16,,2013-01-07 11:01:00,
2013-01-07 03:12:00,49.0,49.0,30.13,South,169,16.0,29.0,100,0.02,,,0.16,,2013-01-07 11:12:00,
2013-01-07 03:22:00,49.0,49.0,30.12,SSE,158,18.0,33.0,100,0.01,,,0.16,,2013-01-07 11:22:00,
2013-01-07 03:32:00,49.0,49.0,30.11,South,182,19.0,28.0,100,0.02,,,0.16,,2013-01-07 11:32:00,
2013-01-07 03:42:00,49.0,49.0,30.11,South,182,19.0,28.0,100,0.02,,,0.16,,2013-01-07 11:42:00,
2013-01-07 03:53:00,49.0,49.0,30.12,SSE,158,17.0,31.0,100,0.03,,,0.17,,2013-01-07 11:53:00,
2013-01-07 04:02:00,49.0,49.0,30.12,SSE,148,13.0,30.0,100,0.04,,,0.19,,2013-01-07 12:02:00,
2013-01-07 04:12:00,50.0,50.0,30.12,South,190,16.0,33.0,100,0.06,,,0.21,,2013-01-07 12:12:00,
2013-01-07 04:22:00,50.0,50.0,30.12,South,190,16.0,33.0,100,0.06,,,0.21,,2013-01-07 12:22:00,
2013-01-07 04:32:00,50.0,50.0,30.11,SSE,160,20.0,33.0,100,0.06,,,0.21,,2013-01-07 12:32:00,
2013-01-07 04:42:00,50.0,50.0,30.11,SSE,160,20.0,33.0,100,0.06,,,0.21,,2013-01-07 12:42:00,
2013-01-07 04:52:00,50.0,50.0,30.10,SSW,196,17.0,26.0,100,0.07,,,0.23,,2013-01-07 12:52:00,
2013-01-07 05:02:00,50.0,50.0,30.09,SSE,167,16.0,27.0,100,0.06,,,0.24,,2013-01-07 13:02:00,
2013-01-07 05:12:00,50.0,50.0,30.09,SSE,167,16.0,27.0,100,0.06,,,0.24,,2013-01-07 13:12:00,
2013-01-07 05:22:00,50.0,50.0,30.09,SSW,196,14.0,23.0,100,0.06,,,0.26,,2013-01-07 13:22:00,
2013-01-07 05:32:00,50.0,50.0,30.09,SE,134,2.0,15.0,100,0.09,,,0.30,,2013-01-07 13:32:00,
2013-01-07 05:42:00,50.0,50.0,30.09,SE,134,2.0,15.0,100,0.09,,,0.30,,2013-01-07 13:42:00,
2013-01-07 05:53:00,51.0,51.0,30.11,SSW,202,0.0,9.0,100,0.13,,,0.36,,2013-01-07 13:53:00,
2013-01-07 06:02:00,51.0,51.0,30.11,SSE,159,0.0,1.0,100,0.17,,,0.41,,2013-01-07 14:02:00,
2013-01-07 06:12:00,51.0,51.0,30.11,SSE,159,0.0,1.0,100,0.17,,,0.41,,2013-01-07 14:12:00,
2013-01-07 06:22:00,51.0,51.0,30.11,SSE,155,0.0,1.0,100,0.21,,,0.47,,2013-01-07 14:22:00,
2013-01-07 06:32:00,51.0,51.0,30.11,South,170,0.0,1.0,100,0.24,,,0.54,,2013-01-07 14:32:00,
2013-01-07 06:42:00,51.0,51.0,30.11,South,170,0.0,1.0,100,0.24,,,0.54,,2013-01-07 14:42:00,
2013-01-07 06:53:00,51.0,51.0,30.11,SSW,193,0.0,1.0,100,0.24,,,0.60,,2013-01-07 14:53:00,
2013-01-07 07:02:00,51.0,51.0,30.11,South,187,0.0,0.0,100,0.24,,,0.65,,2013-01-07 15:02:00,
2013-01-07 07:12:00,51.0,51.0,30.11,South,187,0.0,0.0,100,0.24,,,0.65,,2013-01-07 15:12:00,
2013-01-07 07:22:00,51.0,51.0,30.12,SSW,194,0.0,1.0,100,0.24,,,0.71,,2013-01-07 15:22:00,
2013-01-07 07:33:00,51.0,51.0,30.13,South,182,0.0,0.0,100,0.20,,,0.74,,2013-01-07 15:33:00,
2013-01-07 07:42:00,51.0,51.0,30.13,South,182,0.0,0.0,100,0.20,,,0.74,,2013-01-07 15:42:00,
2013-01-07 07:53:00,51.0,51.0,30.14,SSW,212,0.0,1.0,100,0.19,,,0.79,,2013-01-07 15:53:00,
2013-01-07 08:02:00,51.0,51.0,30.14,SSW,205,0.0,1.0,100,0.16,,,0.81,,2013-01-07 16:02:00,
2013-01-07 08:12:00,51.0,51.0,30.14,SSW,205,0.0,1.0,100,0.16,,,0.81,,2013-01-07 16:12:00,
2013-01-07 08:22:00,52.0,52.0,30.15,South,189,0.0,1.0,100,0.11,,,0.82,,2013-01-07 16:22:00,
2013-01-07 08:32:00,52.0,52.0,30.15,South,183,0.0,1.0,100,0.09,,,0.83,,2013-01-07 16:32:00,
2013-01-07 08:42:00,52.0,52.0,30.15,South,183,0.0,1.0,100,0.09,,,0.83,,2013-01-07 16:42:00,
2013-01-07 08:53:00,52.0,52.0,30.16,South,181,0.0,1.0,100,0.04,,,0.83,,2013-01-07 16:53:00,
2013-01-07 09:02:00,52.0,52.0,30.16,South,188,0.0,1.0,100,0.02,,,0.83,,2013-01-07 17:02:00,
2013-01-07 09:12:00,52.0,52.0,30.16,South,188,0.0,1.0,100,0.02,,,0.83,,2013-01-07 17:12:00,
2013-01-07 09:22:00,52.0,52.0,30.17,SW,225,0.0,0.0,100,0.02,,,0.84,,2013-01-07 17:22:00,
2013-01-07 09:32:00,52.0,52.0,30.18,SW,230,0.0,1.0,100,0.01,,,0.84,,2013-01-07 17:32:00,
2013-01-07 09:42:00,52.0,52.0,30.18,SW,230,0.0,1.0,100,0.01,,,0.84,,2013-01-07 17:42:00,
2013-01-07 09:53:00,52.0,52.0,30.19,SSW,209,0.0,1.0,100,0.01,,,0.84,,2013-01-07 17:53:00,
2013-01-07 10:02:00,52.0,52.0,30.19,SSW,211,0.0,1.0,100,0.01,,,0.84,,2013-01-07 18:02:00,
2013-01-07 10:12:00,52.0,52.0,30.19,SSW,211,0.0,1.0,100,0.01,,,0.84,,2013-01-07 18:12:00,
2013-01-07 10:23:00,52.0,52.0,30.21,SW,235,0.0,1.0,100,0.00,,,0.84,,2013-01-07 18:23:00,
2013-01-07 10:32:00,52.0,52.0,30.21,SW,215,0.0,1.0,100,0.00,,,0.84,,2013-01-07 18:32:00,
2013-01-07 10:42:00,52.0,52.0,30.21,SW,215,0.0,1.0,100,0.00,,,0.84,,2013-01-07 18:42:00,
2013-01-07 10:52:00,52.0,52.0,30.22,WSW,255,0.0,1.0,100,0.00,,,0.84,,2013-01-07 18:52:00,
2013-01-07 11:02:00,52.0,52.0,30.22,WSW,239,0.0,1.0,100,0.00,,,0.84,,2013-01-07 19:02:00,
2013-01-07 11:12:00,52.0,52.0,30.22,WSW,239,0.0,1.0,100,0.00,,,0.84,,2013-01-07 19:12:00,
2013-01-07 11:22:00,52.0,52.0,30.22,WSW,252,0.0,1.0,100,0.00,,,0.84,,2013-01-07 19:22:00,
2013-01-07 11:32:00,52.0,52.0,30.22,WSW,242,0.0,1.0,100,0.00,,,0.84,,2013-01-07 19:32:00,
2013-01-07 11:42:00,52.0,52.0,30.22,WSW,242,0.0,1.0,100,0.00,,,0.84,,2013-01-07 19:42:00,
2013-01-07 11:53:00,52.0,52.0,30.23,South,184,0.0,1.0,100,0.00,,,0.84,,2013-01-07 19:53:00,
2013-01-07 12:02:00,51.0,51.0,30.23,WSW,241,0.0,0.0,100,0.00,,,0.84,,2013-01-07 20:02:00,
2013-01-07 12:12:00,51.0,51.0,30.23,WSW,241,0.0,0.0,100,0.00,,,0.84,,2013-01-07 20:12:00,
2013-01-07 12:22:00,51.0,51.0,30.23,West,274,0.0,1.0,100,0.00,,,0.84,,2013-01-07 20:22:00,
2013-01-07 12:32:00,51.0,51.0,30.23,SW,225,0.0,1.0,100,0.00,,,0.84,,2013-01-07 20:32:00,
2013-01-07 12:42:00,51.0,51.0,30.23,SW,225,0.0,1.0,100,0.00,,,0.84,,2013-01-07 20:42:00,
2013-01-07 12:53:00,51.0,51.0,30.22,SW,221,0.0,1.0,100,0.00,,,0.84,,2013-01-07 20:53:00,
2013-01-07 13:02:00,51.0,51.0,30.22,West,263,0.0,1.0,100,0.00,,,0.84,,2013-01-07 21:02:00,
2013-01-07 13:12:00,51.0,51.0,30.22,West,263,0.0,1.0,100,0.00,,,0.84,,2013-01-07 21:12:00,
2013-01-07 13:22:00,51.0,51.0,30.22,West,265,0.0,1.0,100,0.00,,,0.84,,2013-01-07 21:22:00,
2013-01-07 13:32:00,51.0,51.0,30.22,SW,215,0.0,1.0,100,0.00,,,0.84,,2013-01-07 21:32:00,
2013-01-07 13:42:00,51.0,51.0,30.22,SW,215,0.0,1.0,100,0.00,,,0.84,,2013-01-07 21:42:00,
2013-01-07 13:53:00,51.0,51.0,30.23,SW,218,0.0,1.0,100,0.00,,,0.84,,2013-01-07 21:53:00,
2013-01-07 14:02:00,51.0,51.0,30.23,WSW,243,0.0,1.0,100,0.00,,,0.84,,2013-01-07 22:02:00,
2013-01-07 14:11:00,51.0,51.0,30.23,WSW,243,0.0,1.0,100,0.00,,,0.84,,2013-01-07 22:11:00,
2013-01-07 14:22:00,51.0,51.0,30.24,SSW,207,0.0,1.0,100,0.00,,,0.84,,2013-01-07 22:22:00,
2013-01-07 14:33:00,51.0,51.0,30.24,WSW,237,0.0,0.0,100,0.00,,,0.84,,2013-01-07 22:33:00,
2013-01-07 14:42:00,51.0,51.0,30.24,WSW,237,0.0,0.0,100,0.00,,,0.84,,2013-01-07 22:42:00,
2013-01-07 14:53:00,51.0,51.0,30.26,West,269,0.0,1.0,100,0.00,,,0.84,,2013-01-07 22:53:00,
2013-01-07 15:02:00,51.0,51.0,30.26,WSW,250,0.0,0.0,100,0.00,,,0.84,,2013-01-07 23:02:00,
2013-01-07 15:11:00,51.0,51.0,30.26,WSW,250,0.0,0.0,100,0.00,,,0.84,,2013-01-07 23:11:00,
2013-01-07 15:22:00,51.0,51.0,30.26,SW,235,0.0,0.0,100,0.00,,,0.84,,2013-01-07 23:22:00,
2013-01-07 15:32:00,51.0,51.0,30.26,SW,225,0.0,1.0,100,0.00,,,0.84,,2013-01-07 23:32:00,
2013-01-07 15:42:00,51.0,51.0,30.26,SW,225,0.0,1.0,100,0.00,,,0.84,,2013-01-07 23:42:00,
2013-01-07 15:53:00,51.0,51.0,30.26,WSW,238,0.0,1.0,100,0.00,,,0.84,,2013-01-07 23:53:00,
2013-01-07 16:02:00,51.0,51.0,30.26,WSW,239,0.0,0.0,100,0.00,,,0.84,,2013-01-08 00:02:00,
2013-01-07 16:12:00,51.0,51.0,30.26,WSW,239,0.0,0.0,100,0.00,,,0.84,,2013-01-08 00:12:00,
2013-01-07 16:22:00,51.0,51.0,30.26,WSW,247,0.0,0.0,100,0.00,,,0.84,,2013-01-08 00:22:00,
2013-01-07 16:32:00,51.0,51.0,30.26,SSW,210,0.0,1.0,100,0.00,,,0.84,,2013-01-08 00:32:00,
2013-01-07 16:42:00,51.0,51.0,30.26,SSW,210,0.0,1.0,100,0.00,,,0.84,,2013-01-08 00:42:00,
2013-01-07 16:52:00,51.0,51.0,30.26,WSW,248,0.0,1.0,100,0.00,,,0.84,,2013-01-08 00:52:00,
2013-01-07 17:02:00,51.0,51.0,30.25,South,181,0.0,1.0,100,0.00,,,0.84,,2013-01-08 01:02:00,
2013-01-07 17:11:00,51.0,51.0,30.25,South,181,0.0,1.0,100,0.00,,,0.84,,2013-01-08 01:11:00,
2013-01-07 17:22:00,51.0,51.0,30.26,SW,225,0.0,1.0,100,0.00,,,0.84,,2013-01-08 01:22:00,
2013-01-07 17:32:00,51.0,51.0,30.26,WSW,245,0.0,1.0,100,0.00,,,0.84,,2013-01-08 01:32:00,
2013-01-07 17:42:00,51.0,51.0,30.26,WSW,245,0.0,1.0,100,0.00,,,0.84,,2013-01-08 01:42:00,
2013-01-07 17:52:00,51.0,51.0,30.27,WSW,256,0.0,1.0,100,0.00,,,0.84,,2013-01-08 01:52:00,
2013-01-07 18:02:00,51.0,51.0,30.28,SW,225,0.0,1.0,100,0.00,,,0.84,,2013-01-08 02:02:00,
2013-01-07 18:12:00,51.0,51.0,30.28,SW,225,0.0,1.0,100,0.00,,,0.84,,2013-01-08 02:12:00,
2013-01-07 18:22:00,51.0,51.0,30.27,West,275,0.0,1.0,100,0.00,,,0.84,,2013-01-08 02:22:00,
2013-01-07 18:32:00,51.0,51.0,30.27,West,266,0.0,1.0,100,0.00,,,0.83,,2013-01-08 02:32:00,
2013-01-07 18:42:00,51.0,51.0,30.27,West,266,0.0,1.0,100,0.00,,,0.83,,2013-01-08 02:42:00,
2013-01-07 18:53:00,51.0,51.0,30.27,West,272,0.0,1.0,100,0.00,,,0.83,,2013-01-08 02:53:00,
2013-01-07 19:02:00,50.0,50.0,30.27,WNW,299,0.0,1.0,100,0.00,,,0.83,,2013-01-08 03:02:00,
2013-01-07 19:12:00,50.0,50.0,30.27,WNW,299,0.0,1.0,100,0.00,,,0.83,,2013-01-08 03:12:00,
2013-01-07 19:22:00,50.0,50.0,30.27,WNW,296,0.0,1.0,100,0.00,,,0.83,,2013-01-08 03:22:00,
2013-01-07 19:32:00,50.0,50.0,30.27,West,265,1.0,1.0,100,0.00,,,0.83,,2013-01-08 03:32:00,
2013-01-07 19:42:00,50.0,50.0,30.27,West,265,1.0,1.0,100,0.00,,,0.83,,2013-01-08 03:42:00,
2013-01-07 19:53:00,50.0,50.0,30.27,WNW,301,0.0,1.0,100,0.00,,,0.83,,2013-01-08 03:53:00,
2013-01-07 20:02:00,50.0,50.0,30.27,NW,304,0.0,0.0,100,0.00,,,0.83,,2013-01-08 04:02:00,
2013-01-07 20:11:00,50.0,50.0,30.27,NW,304,0.0,0.0,100,0.00,,,0.83,,2013-01-08 04:11:00,
2013-01-07 20:22:00,50.0,50.0,30.27,NW,304,0.0,0.0,100,0.00,,,0.83,,2013-01-08 04:22:00,
2013-01-07 20:32:00,50.0,50.0,30.29,NW,304,0.0,0.0,100,0.00,,,0.81,,2013-01-08 04:32:00,
2013-01-07 20:42:00,50.0,50.0,30.29,NW,304,0.0,0.0,100,0.00,,,0.81,,2013-01-08 04:42:00,
2013-01-07 20:52:00,50.0,50.0,30.28,NW,304,0.0,1.0,100,0.00,,,0.81,,2013-01-08 04:52:00,
2013-01-07 21:03:00,50.0,50.0,30.28,NW,304,1.0,2.0,100,0.00,,,0.81,,2013-01-08 05:03:00,
2013-01-07 21:12:00,50.0,50.0,30.28,NW,304,1.0,2.0,100,0.00,,,0.81,,2013-01-08 05:12:00,
2013-01-07 21:22:00,50.0,50.0,30.27,ESE,119,0.0,1.0,100,0.00,,,0.81,,2013-01-08 05:22:00,
2013-01-07 21:32:00,50.0,50.0,30.27,SE,130,1.0,1.0,100,0.00,,,0.78,,2013-01-08 05:32:00,
2013-01-07 21:42:00,50.0,50.0,30.27,SE,130,1.0,1.0,100,0.00,,,0.78,,2013-01-08 05:42:00,
2013-01-07 21:53:00,50.0,50.0,30.27,East,92,0.0,1.0,100,0.00,,,0.78,,2013-01-08 05:53:00,
2013-01-07 22:02:00,50.0,50.0,30.27,East,99,0.0,1.0,100,0.00,,,0.78,,2013-01-08 06:02:00,
2013-01-07 22:11:00,50.0,50.0,30.27,East,99,0.0,1.0,100,0.00,,,0.78,,2013-01-08 06:11:00,
2013-01-07 22:22:00,50.0,50.0,30.27,East,82,1.0,1.0,100,0.00,,,0.78,,2013-01-08 06:22:00,
2013-01-07 22:32:00,50.0,50.0,30.27,SE,133,1.0,1.0,100,0.00,,,0.76,,2013-01-08 06:32:00,
2013-01-07 22:42:00,50.0,50.0,30.27,SE,133,1.0,1.0,100,0.00,,,0.76,,2013-01-08 06:42:00,
2013-01-07 22:52:00,50.0,50.0,30.27,SE,124,1.0,1.0,100,0.00,,,0.76,,2013-01-08 06:52:00,
2013-01-07 23:02:00,50.0,50.0,30.28,SE,129,1.0,1.0,100,0.00,,,0.76,,2013-01-08 07:02:00,
2013-01-07 23:11:00,50.0,50.0,30.28,SE,129,1.0,1.0,100,0.00,,,0.76,,2013-01-08 07:11:00,
2013-01-07 23:22:00,50.0,50.0,30.28,ESE,109,0.0,1.0,100,0.00,,,0.76,,2013-01-08 07:22:00,
2013-01-07 23:32:00,50.0,50.0,30.28,SE,130,0.0,1.0,100,0.00,,,0.74,,2013-01-08 07:32:00,
2013-01-07 23:42:00,50.0,50.0,30.28,SE,130,0.0,1.0,100,0.00,,,0.74,,2013-01-08 07:42:00,
2013-01-07 23:52:00,50.0,50.0,30.27,SE,141,0.0,1.0,100,0.00,,,0.74,,2013-01-08 07:52:00,